Time;durP1;ratioP1;P1;durP2;ratioP2;P2;SDS_P1;SDS_P2;PMS_P1;PMS_P2;Temp;Humidity;BMP_temperature;BMP_pressure;BME280_temperature;BME280_humidity;BME280_pressure;Samples;Min_cycle;Max_cycle;Signal;HPM_P1;HPM_P2
2023/09/20 00:01:48;;;;;;;4.43;1.70;;;17.70;81.20;;;;;;5093063;28;20441;-61
2023/09/20 00:04:15;;;;;;;4.10;1.50;;;17.70;81.40;;;;;;5092602;28;20454;-61
2023/09/20 00:06:43;;;;;;;1.83;1.13;;;17.70;81.70;;;;;;5092928;28;20437;-61
2023/09/20 00:09:10;;;;;;;3.43;1.70;;;17.70;81.70;;;;;;5093037;28;20464;-61
2023/09/20 00:11:37;;;;;;;5.30;1.57;;;17.80;81.90;;;;;;5093509;28;20492;-61
2023/09/20 00:14:04;;;;;;;3.80;1.83;;;17.80;82.00;;;;;;5092611;28;20911;-61
2023/09/20 00:16:30;;;;;;;5.87;1.37;;;17.80;82.10;;;;;;5092733;28;20481;-61
2023/09/20 00:18:57;;;;;;;3.10;1.40;;;17.80;82.20;;;;;;5092972;28;20477;-61
2023/09/20 00:21:24;;;;;;;6.63;2.10;;;17.80;82.30;;;;;;5093764;28;20440;-60
2023/09/20 00:23:53;;;;;;;3.20;1.63;;;17.80;82.50;;;;;;5093297;28;20883;-62
2023/09/20 00:26:19;;;;;;;2.93;1.67;;;17.90;82.60;;;;;;5094596;28;20830;-62
2023/09/20 00:28:48;;;;;;;3.33;2.03;;;17.90;82.70;;;;;;5097779;28;20839;-61
2023/09/20 00:31:16;;;;;;;3.77;1.77;;;17.80;82.70;;;;;;5098237;28;20467;-61
2023/09/20 00:33:43;;;;;;;5.27;1.53;;;17.90;83.10;;;;;;5097302;28;20452;-60
2023/09/20 00:36:09;;;;;;;3.57;2.17;;;17.80;83.10;;;;;;5097029;28;20441;-60
2023/09/20 00:38:36;;;;;;;2.70;1.60;;;17.80;83.40;;;;;;5097688;28;20462;-60
2023/09/20 00:41:07;;;;;;;5.07;1.47;;;17.80;84.20;;;;;;5096798;28;20448;-61
2023/09/20 00:43:34;;;;;;;3.33;1.60;;;17.80;84.20;;;;;;5097126;28;20423;-61
2023/09/20 00:46:01;;;;;;;4.57;2.07;;;17.80;84.40;;;;;;5097395;28;20597;-61
2023/09/20 00:48:29;;;;;;;3.40;1.60;;;17.80;84.60;;;;;;5096610;28;20460;-59
2023/09/20 00:50:57;;;;;;;5.70;2.10;;;17.80;84.70;;;;;;5097175;28;20491;-61
2023/09/20 00:53:24;;;;;;;4.77;1.47;;;17.80;85.00;;;;;;5097045;28;20437;-61
2023/09/20 00:55:51;;;;;;;4.90;1.87;;;17.80;85.10;;;;;;5096511;28;20452;-61
2023/09/20 00:58:21;;;;;;;2.90;1.43;;;17.90;85.20;;;;;;5096636;28;20819;-61
2023/09/20 01:00:51;;;;;;;3.70;1.47;;;17.90;85.40;;;;;;5097562;28;20445;-62
2023/09/20 01:03:19;;;;;;;2.40;1.60;;;17.90;85.50;;;;;;5097526;28;20460;-60
2023/09/20 01:05:46;;;;;;;5.30;1.90;;;17.90;85.80;;;;;;5096699;28;20932;-60
2023/09/20 01:08:13;;;;;;;3.10;1.60;;;17.90;85.90;;;;;;5096957;28;20446;-60
2023/09/20 01:10:40;;;;;;;3.20;1.80;;;17.90;86.80;;;;;;5096577;28;20440;-60
2023/09/20 01:13:10;;;;;;;5.13;1.90;;;17.90;86.40;;;;;;5096634;28;20811;-59
2023/09/20 01:15:38;;;;;;;3.23;1.57;;;17.90;86.50;;;;;;5096139;28;20453;-61
2023/09/20 01:18:07;;;;;;;3.70;1.80;;;17.90;86.60;;;;;;5096087;28;20482;-61
2023/09/20 01:20:36;;;;;;;5.70;1.70;;;17.90;86.90;;;;;;5095823;28;21018;-61
2023/09/20 01:23:04;;;;;;;5.17;1.70;;;18.00;87.20;;;;;;5096536;28;20448;-61
2023/09/20 01:25:33;;;;;;;3.00;1.90;;;18.00;87.40;;;;;;5096071;28;20441;-61
2023/09/20 01:28:03;;;;;;;2.73;1.43;;;18.00;87.60;;;;;;5095999;28;20885;-61
2023/09/20 01:30:31;;;;;;;3.03;1.30;;;18.00;87.80;;;;;;5096031;28;20476;-62
2023/09/20 01:33:00;;;;;;;3.43;1.70;;;18.00;88.20;;;;;;5096063;28;20531;-61
2023/09/20 01:35:29;;;;;;;2.87;1.43;;;18.00;88.40;;;;;;5096688;28;20488;-60
2023/09/20 01:37:56;;;;;;;4.97;1.80;;;18.00;88.70;;;;;;5095858;28;20474;-61
2023/09/20 01:40:26;;;;;;;2.93;2.20;;;18.00;88.80;;;;;;5094787;28;20512;-61
2023/09/20 01:42:53;;;;;;;4.80;1.70;;;18.00;89.10;;;;;;5095444;28;20471;-61
2023/09/20 01:45:22;;;;;;;4.67;2.00;;;18.00;89.20;;;;;;5095820;28;20430;-61
2023/09/20 01:47:51;;;;;;;3.73;1.60;;;18.00;89.60;;;;;;5095656;28;20493;-61
2023/09/20 01:50:19;;;;;;;3.30;1.77;;;18.00;89.80;;;;;;5095712;28;20458;-61
2023/09/20 01:52:47;;;;;;;2.00;1.30;;;18.00;89.90;;;;;;5095894;28;20536;-61
2023/09/20 01:55:17;;;;;;;6.27;2.47;;;18.00;90.00;;;;;;5095532;28;20442;-61
2023/09/20 01:57:46;;;;;;;3.23;1.93;;;18.10;90.10;;;;;;5095021;28;21012;-61
2023/09/20 02:00:22;;;;;;;3.80;2.17;;;18.00;90.50;;;;;;5095722;28;20462;-61
2023/09/20 02:02:49;;;;;;;3.23;1.73;;;18.00;90.20;;;;;;5095589;28;20429;-61
2023/09/20 02:05:17;;;;;;;4.90;2.13;;;18.10;90.30;;;;;;5095340;28;20434;-61
2023/09/20 02:07:46;;;;;;;6.87;1.93;;;18.00;90.40;;;;;;5095070;28;20925;-61
2023/09/20 02:10:13;;;;;;;4.47;2.20;;;18.10;90.60;;;;;;5095386;28;20472;-61
2023/09/20 02:12:40;;;;;;;2.87;1.77;;;18.10;90.60;;;;;;5095182;28;20863;-61
2023/09/20 02:15:10;;;;;;;3.20;1.90;;;18.10;90.70;;;;;;5095242;28;20444;-61
2023/09/20 02:17:38;;;;;;;3.03;1.87;;;18.10;90.80;;;;;;5095000;28;20470;-61
2023/09/20 02:20:08;;;;;;;4.27;1.77;;;18.10;91.00;;;;;;5094763;28;20987;-61
2023/09/20 02:22:37;;;;;;;5.43;2.30;;;18.10;90.80;;;;;;5095041;28;20545;-61
2023/09/20 02:25:07;;;;;;;9.53;2.30;;;18.10;90.90;;;;;;5094972;28;20436;-61
2023/09/20 02:27:35;;;;;;;5.43;2.30;;;18.10;90.90;;;;;;5094697;28;20475;-61
2023/09/20 02:30:03;;;;;;;6.47;2.57;;;18.10;90.90;;;;;;5094811;28;20552;-61
2023/09/20 02:32:32;;;;;;;3.20;2.00;;;18.10;91.00;;;;;;5119126;22;20538;-62
2023/09/20 02:35:03;;;;;;;1.97;1.50;;;18.10;91.10;;;;;;5095057;28;20418;-62
2023/09/20 02:37:29;;;;;;;9.77;2.17;;;18.10;91.20;;;;;;5098337;28;20465;-62
2023/09/20 02:39:56;;;;;;;2.57;1.60;;;18.10;91.20;;;;;;5099226;28;20434;-61
2023/09/20 02:42:26;;;;;;;8.03;2.20;;;18.10;91.30;;;;;;5094965;28;20463;-63
2023/09/20 02:44:53;;;;;;;3.90;1.80;;;18.10;91.40;;;;;;5095012;28;20441;-62
2023/09/20 02:47:21;;;;;;;4.10;2.00;;;18.10;91.50;;;;;;5094727;28;20441;-62
2023/09/20 02:49:49;;;;;;;3.67;1.97;;;18.10;91.60;;;;;;5094724;28;20468;-62
2023/09/20 02:52:17;;;;;;;2.70;1.73;;;18.10;91.60;;;;;;5093505;28;20469;-63
2023/09/20 02:54:44;;;;;;;3.87;1.80;;;18.10;91.70;;;;;;5094723;28;20445;-62
2023/09/20 02:57:13;;;;;;;4.43;2.13;;;18.10;91.70;;;;;;5094249;28;20444;-59
2023/09/20 02:59:40;;;;;;;3.03;1.63;;;18.10;91.80;;;;;;5095202;28;20456;-60
2023/09/20 03:02:08;;;;;;;4.37;2.30;;;18.10;91.90;;;;;;5094625;28;20850;-61
2023/09/20 03:04:37;;;;;;;5.30;2.10;;;18.10;91.90;;;;;;5094491;28;20457;-61
2023/09/20 03:07:06;;;;;;;4.63;2.20;;;18.10;92.00;;;;;;5094280;28;20540;-60
2023/09/20 03:09:36;;;;;;;2.70;1.83;;;18.10;92.00;;;;;;5094455;28;20539;-62
2023/09/20 03:12:05;;;;;;;4.73;2.37;;;18.00;92.10;;;;;;5095311;28;20442;-62
2023/09/20 03:14:34;;;;;;;2.50;1.70;;;18.00;92.20;;;;;;5094206;28;20456;-62
2023/09/20 03:17:02;;;;;;;2.83;1.80;;;18.00;92.30;;;;;;5094607;28;20440;-62
2023/09/20 03:19:31;;;;;;;5.27;1.87;;;18.00;92.50;;;;;;5094540;28;20445;-62
2023/09/20 03:21:59;;;;;;;3.20;1.83;;;18.00;92.70;;;;;;5094057;28;20480;-62
2023/09/20 03:24:27;;;;;;;5.40;2.17;;;18.00;92.80;;;;;;5093941;28;20457;-62
2023/09/20 03:26:55;;;;;;;4.97;2.07;;;17.90;92.90;;;;;;5093631;28;20931;-61
2023/09/20 03:29:23;;;;;;;3.10;1.70;;;17.90;93.10;;;;;;5093619;28;20949;-61
2023/09/20 03:31:50;;;;;;;9.27;2.30;;;17.90;93.20;;;;;;5093679;28;20441;-61
2023/09/20 03:34:20;;;;;;;5.53;1.70;;;17.90;93.40;;;;;;5093961;28;20469;-61
2023/09/20 03:36:47;;;;;;;5.90;2.00;;;17.90;93.60;;;;;;5093844;28;20445;-61
2023/09/20 03:39:14;;;;;;;2.83;1.80;;;17.80;93.70;;;;;;5093728;28;21020;-61
2023/09/20 03:41:42;;;;;;;5.13;2.20;;;17.80;93.90;;;;;;5093527;28;20487;-61
2023/09/20 03:44:09;;;;;;;5.03;2.10;;;17.80;94.10;;;;;;5093459;28;20461;-61
2023/09/20 03:46:36;;;;;;;3.07;2.00;;;17.80;94.20;;;;;;5093767;28;20477;-61
2023/09/20 03:49:03;;;;;;;4.93;2.43;;;17.80;94.40;;;;;;5093737;28;20554;-61
2023/09/20 03:51:31;;;;;;;2.57;1.90;;;17.80;94.50;;;;;;5094307;28;20446;-61
2023/09/20 03:53:58;;;;;;;4.27;2.40;;;17.80;94.70;;;;;;5093393;28;20498;-61
2023/09/20 03:56:25;;;;;;;4.87;1.97;;;17.80;94.70;;;;;;5093605;28;20447;-62
2023/09/20 03:58:53;;;;;;;6.33;2.03;;;17.80;94.80;;;;;;5093478;28;20480;-63
2023/09/20 04:01:20;;;;;;;3.13;1.63;;;17.80;94.90;;;;;;5118026;22;20482;-60
2023/09/20 04:03:47;;;;;;;7.40;2.20;;;17.80;95.00;;;;;;5092974;28;20866;-60
2023/09/20 04:06:14;;;;;;;5.13;2.03;;;17.80;95.10;;;;;;5093213;28;20561;-60
2023/09/20 04:12:15;;;;;;;5.03;2.13;;;17.80;95.00;;;;;;5090382;28;21054;-59
2023/09/20 04:14:42;;;;;;;3.17;1.77;;;17.80;95.30;;;;;;5090816;28;20539;-59
2023/09/20 04:17:09;;;;;;;4.47;2.30;;;17.80;95.40;;;;;;5090343;28;20496;-60
2023/09/20 04:19:39;;;;;;;5.27;1.80;;;17.80;95.50;;;;;;5089979;28;20447;-60
2023/09/20 04:22:06;;;;;;;6.67;2.30;;;17.80;95.50;;;;;;5090170;28;20466;-60
2023/09/20 04:24:33;;;;;;;3.87;1.73;;;17.70;95.60;;;;;;5090043;28;20431;-60
2023/09/20 04:27:01;;;;;;;3.40;2.23;;;17.70;95.70;;;;;;5090051;28;20443;-61
2023/09/20 04:29:29;;;;;;;2.40;1.73;;;17.70;95.80;;;;;;5090145;28;20438;-61
2023/09/20 04:31:56;;;;;;;2.60;1.53;;;17.70;96.30;;;;;;5090544;28;20501;-61
2023/09/20 04:34:23;;;;;;;3.27;2.40;;;17.70;96.10;;;;;;5089992;28;20446;-61
2023/09/20 04:36:51;;;;;;;2.93;1.77;;;17.70;96.30;;;;;;5089568;28;20873;-61
2023/09/20 04:39:18;;;;;;;2.10;1.60;;;17.60;96.40;;;;;;5089782;28;20521;-59
2023/09/20 04:41:45;;;;;;;3.03;1.63;;;17.70;96.50;;;;;;5089936;28;20461;-60
2023/09/20 04:44:13;;;;;;;3.33;2.20;;;17.60;96.60;;;;;;5089644;28;20446;-60
2023/09/20 04:46:42;;;;;;;4.30;2.40;;;17.60;96.80;;;;;;5089498;28;20443;-60
2023/09/20 04:49:10;;;;;;;4.10;2.30;;;17.50;97.00;;;;;;5089527;28;20457;-60
2023/09/20 04:51:37;;;;;;;6.17;2.20;;;17.50;97.20;;;;;;5089524;28;20486;-59
2023/09/20 04:54:05;;;;;;;5.40;2.13;;;17.40;97.50;;;;;;5089677;28;20447;-60
2023/09/20 04:56:33;;;;;;;4.47;2.50;;;17.30;97.80;;;;;;5089297;28;20932;-60
2023/09/20 04:59:00;;;;;;;4.57;2.20;;;17.20;98.20;;;;;;5089810;28;20958;-60
2023/09/20 05:01:29;;;;;;;3.33;2.10;;;17.10;98.50;;;;;;5093977;28;20466;-60
2023/09/20 05:03:57;;;;;;;4.53;2.23;;;17.10;98.90;;;;;;5094600;28;20439;-59
2023/09/20 05:06:24;;;;;;;4.43;2.23;;;17.00;99.30;;;;;;5094440;28;20525;-59
2023/09/20 05:08:50;;;;;;;5.57;2.20;;;16.90;99.70;;;;;;5094383;28;20442;-62
2023/09/20 05:11:18;;;;;;;4.37;2.33;;;16.90;99.90;;;;;;5094561;28;20494;-60
2023/09/20 05:13:45;;;;;;;4.13;2.73;;;16.80;99.90;;;;;;5093314;28;20453;-59
2023/09/20 05:16:12;;;;;;;5.50;2.20;;;16.80;99.90;;;;;;5089247;28;20899;-59
2023/09/20 05:18:39;;;;;;;3.67;2.67;;;16.70;99.90;;;;;;5089174;28;20437;-60
2023/09/20 05:21:09;;;;;;;3.47;2.30;;;16.70;99.90;;;;;;5089096;28;20481;-60
2023/09/20 05:23:36;;;;;;;6.10;2.80;;;16.70;99.90;;;;;;5075582;28;20442;-60
2023/09/20 05:26:04;;;;;;;3.80;2.60;;;16.60;99.90;;;;;;5075779;28;20446;-60
2023/09/20 05:28:30;;;;;;;5.13;2.57;;;16.60;99.90;;;;;;5075584;28;20450;-60
2023/09/20 05:30:57;;;;;;;4.07;2.23;;;16.60;99.90;;;;;;5075234;28;20489;-60
2023/09/20 05:33:24;;;;;;;6.00;2.83;;;16.60;99.90;;;;;;5075591;28;20854;-60
2023/09/20 05:35:52;;;;;;;5.83;1.90;;;16.60;99.90;;;;;;5075650;28;20489;-60
2023/09/20 05:38:21;;;;;;;6.40;2.63;;;16.60;99.90;;;;;;5075781;28;20453;-60
2023/09/20 05:40:48;;;;;;;3.03;2.20;;;16.60;99.90;;;;;;5075282;28;20443;-60
2023/09/20 05:43:16;;;;;;;4.30;2.87;;;16.60;99.90;;;;;;5075602;28;20461;-60
2023/09/20 05:45:43;;;;;;;3.70;2.50;;;16.70;99.90;;;;;;5075797;28;20452;-60
2023/09/20 05:48:10;;;;;;;4.00;2.00;;;16.70;99.90;;;;;;5075092;28;20447;-60
2023/09/20 05:50:37;;;;;;;6.07;2.73;;;16.70;99.90;;;;;;5075196;28;20553;-60
2023/09/20 05:53:06;;;;;;;4.67;2.90;;;16.80;99.90;;;;;;5074964;28;20455;-60
2023/09/20 05:55:37;;;;;;;3.50;2.30;;;16.80;99.90;;;;;;5075080;28;20530;-60
2023/09/20 05:58:04;;;;;;;6.77;3.50;;;16.90;99.90;;;;;;5074905;28;20422;-60
2023/09/20 06:00:31;;;;;;;6.93;3.33;;;16.90;99.90;;;;;;5075011;28;20447;-60
2023/09/20 06:02:58;;;;;;;6.00;2.60;;;17.00;99.90;;;;;;5074614;28;20463;-60
2023/09/20 06:05:25;;;;;;;6.07;3.30;;;17.00;99.90;;;;;;5074942;28;20453;-59
2023/09/20 06:07:53;;;;;;;12.50;3.03;;;17.00;99.90;;;;;;5074962;28;20786;-59
2023/09/20 06:10:22;;;;;;;6.33;3.30;;;17.10;99.90;;;;;;5074963;28;20543;-60
2023/09/20 06:12:51;;;;;;;5.40;2.47;;;17.10;99.90;;;;;;5074621;28;21001;-60
2023/09/20 06:15:18;;;;;;;5.63;2.40;;;17.10;99.90;;;;;;5077536;28;20447;-60
2023/09/20 06:17:47;;;;;;;5.43;2.80;;;17.10;99.90;;;;;;5077461;28;20447;-60
2023/09/20 06:20:19;;;;;;;7.10;2.60;;;17.10;99.90;;;;;;5076908;28;20444;-60
2023/09/20 06:22:46;;;;;;;3.63;2.30;;;17.10;99.90;;;;;;5076396;28;20460;-60
2023/09/20 06:25:13;;;;;;;5.70;2.47;;;17.10;99.90;;;;;;5076032;28;20454;-60
2023/09/20 06:27:40;;;;;;;5.40;2.60;;;17.10;99.90;;;;;;5076065;28;20440;-60
2023/09/20 06:30:12;;;;;;;4.70;2.70;;;17.20;99.90;;;;;;5075468;28;20447;-60
2023/09/20 06:32:39;;;;;;;4.30;2.43;;;17.20;99.90;;;;;;5074131;28;20535;-60
2023/09/20 06:35:07;;;;;;;7.37;2.73;;;17.30;99.90;;;;;;5073134;28;20451;-59
2023/09/20 06:37:35;;;;;;;3.60;2.33;;;17.40;99.90;;;;;;5073877;28;20444;-60
2023/09/20 06:40:03;;;;;;;3.40;2.23;;;17.50;99.90;;;;;;5074071;28;20487;-60
2023/09/20 06:42:30;;;;;;;6.97;3.30;;;17.60;99.90;;;;;;5074303;28;20521;-60
2023/09/20 06:44:57;;;;;;;3.97;2.63;;;17.70;99.90;;;;;;5073859;28;20448;-58
2023/09/20 06:47:25;;;;;;;5.60;1.90;;;17.80;99.90;;;;;;5074083;28;20450;-61
2023/09/20 06:49:53;;;;;;;5.27;2.60;;;17.90;99.90;;;;;;5073680;28;20447;-60
2023/09/20 06:52:19;;;;;;;3.27;2.20;;;17.90;99.90;;;;;;5073916;28;20487;-60
2023/09/20 06:54:46;;;;;;;5.60;2.77;;;17.90;99.90;;;;;;5073946;28;20450;-60
2023/09/20 06:57:17;;;;;;;5.57;2.00;;;18.00;99.90;;;;;;5073917;28;20449;-60
2023/09/20 06:59:46;;;;;;;4.70;2.47;;;18.00;99.90;;;;;;5073900;28;20522;-60
2023/09/20 07:02:13;;;;;;;3.80;2.43;;;18.10;99.90;;;;;;5073808;28;20547;-61
2023/09/20 07:04:42;;;;;;;4.97;2.40;;;18.20;99.90;;;;;;5074207;28;20448;-61
2023/09/20 07:07:10;;;;;;;3.20;2.63;;;18.30;99.90;;;;;;5073926;28;20459;-62
2023/09/20 07:09:37;;;;;;;3.60;2.70;;;18.40;99.90;;;;;;5073545;28;20890;-61
2023/09/20 07:12:07;;;;;;;3.60;2.10;;;18.50;99.70;;;;;;5073162;28;20869;-60
2023/09/20 07:14:35;;;;;;;3.63;2.63;;;18.60;99.40;;;;;;5074239;28;20432;-61
2023/09/20 07:17:03;;;;;;;3.63;2.00;;;18.70;98.90;;;;;;5073595;28;20447;-61
2023/09/20 07:19:30;;;;;;;3.13;1.83;;;18.80;98.40;;;;;;5073644;28;20963;-61
2023/09/20 07:21:59;;;;;;;2.70;2.47;;;18.90;98.10;;;;;;5074107;28;20463;-59
2023/09/20 07:24:26;;;;;;;6.53;2.30;;;19.00;97.80;;;;;;5073778;28;20448;-61
2023/09/20 07:26:54;;;;;;;4.60;2.17;;;19.10;97.40;;;;;;5073801;28;20448;-61
2023/09/20 07:29:21;;;;;;;3.90;2.10;;;19.30;97.10;;;;;;5073564;28;20444;-60
2023/09/20 07:31:48;;;;;;;4.77;2.10;;;19.40;96.60;;;;;;5073423;28;20566;-60
2023/09/20 07:34:17;;;;;;;3.30;1.83;;;19.50;96.20;;;;;;5073642;28;20534;-60
2023/09/20 07:36:44;;;;;;;3.80;2.30;;;19.60;95.80;;;;;;5074261;28;21009;-60
2023/09/20 07:39:13;;;;;;;3.27;2.30;;;19.80;95.30;;;;;;5074226;28;20447;-60
2023/09/20 07:41:44;;;;;;;3.23;2.00;;;20.00;94.70;;;;;;5074787;28;20496;-60
2023/09/20 07:44:13;;;;;;;5.17;2.13;;;20.20;94.10;;;;;;5076934;28;20424;-60
2023/09/20 07:46:39;;;;;;;2.53;1.90;;;20.30;93.40;;;;;;5076793;28;20466;-62
2023/09/20 07:49:10;;;;;;;5.80;2.20;;;20.40;92.90;;;;;;5075761;28;20959;-61
2023/09/20 07:51:37;;;;;;;6.63;1.80;;;20.50;92.40;;;;;;5077045;28;20526;-61
2023/09/20 07:54:06;;;;;;;4.37;2.17;;;20.60;92.00;;;;;;5076578;28;20448;-60
2023/09/20 07:56:34;;;;;;;5.37;2.77;;;20.80;91.50;;;;;;5074650;28;20451;-60
2023/09/20 07:59:00;;;;;;;2.77;1.80;;;20.90;91.10;;;;;;5072890;28;20447;-61
2023/09/20 08:01:29;;;;;;;3.80;2.50;;;21.00;90.60;;;;;;5072719;28;20513;-60
2023/09/20 08:03:58;;;;;;;6.47;2.03;;;21.00;90.20;;;;;;5073043;28;20439;-60
2023/09/20 08:06:27;;;;;;;4.00;2.30;;;21.00;89.80;;;;;;5072785;28;20446;-60
2023/09/20 08:08:55;;;;;;;13.23;2.43;;;21.00;89.50;;;;;;5073213;28;20577;-60
2023/09/20 08:11:22;;;;;;;2.77;2.00;;;21.00;89.40;;;;;;5072717;28;20483;-62
2023/09/20 08:13:52;;;;;;;3.03;1.73;;;20.90;89.10;;;;;;5072872;28;20955;-62
2023/09/20 08:16:19;;;;;;;5.23;2.10;;;20.90;89.10;;;;;;5072928;28;20504;-60
2023/09/20 08:19:03;;;;;;;3.17;2.27;;;20.90;88.90;;;;;;5073116;28;20440;-63
2023/09/20 08:21:32;;;;;;;4.57;2.20;;;20.90;88.80;;;;;;5072638;28;20972;-61
2023/09/20 09:00:21;;;;;;;4.13;2.20;;;21.10;83.80;;;;;;5076139;28;20465;-61
2023/09/20 09:02:53;;;;;;;3.40;1.67;;;21.10;83.90;;;;;;5076505;28;20459;-62
2023/09/20 09:05:21;;;;;;;3.53;2.40;;;21.20;83.60;;;;;;5076396;28;20442;-61
2023/09/20 09:07:48;;;;;;;2.70;2.20;;;21.30;83.30;;;;;;5076242;28;20444;-61
2023/09/20 09:10:15;;;;;;;3.00;2.20;;;21.50;83.00;;;;;;5076049;28;20454;-60
2023/09/20 09:12:43;;;;;;;4.03;2.17;;;21.70;82.10;;;;;;5075824;28;20493;-61
2023/09/20 09:15:11;;;;;;;3.37;3.10;;;22.00;81.10;;;;;;5076464;28;20446;-60
2023/09/20 09:17:43;;;;;;;10.33;2.57;;;22.20;79.80;;;;;;5076663;28;20447;-61
2023/09/20 09:20:13;;;;;;;2.20;1.37;;;22.40;78.70;;;;;;5076245;28;20450;-60
2023/09/20 09:22:40;;;;;;;3.23;1.70;;;22.60;77.90;;;;;;5076083;28;20460;-61
2023/09/20 09:25:11;;;;;;;1.90;1.67;;;22.60;77.00;;;;;;5076159;28;20446;-61
2023/09/20 09:27:40;;;;;;;12.63;2.63;;;22.60;76.50;;;;;;5076642;28;20836;-61
2023/09/20 09:30:09;;;;;;;3.23;1.73;;;22.60;76.30;;;;;;5076218;28;20440;-60
2023/09/20 09:32:36;;;;;;;2.70;2.30;;;22.50;76.30;;;;;;5076174;28;20479;-60
2023/09/20 09:35:05;;;;;;;3.07;1.80;;;22.50;76.30;;;;;;5075758;28;21006;-62
2023/09/20 09:37:35;;;;;;;4.30;1.97;;;22.50;76.10;;;;;;5075974;28;20497;-62
2023/09/20 09:40:03;;;;;;;3.77;2.40;;;22.50;75.80;;;;;;5075467;28;20956;-61
2023/09/20 09:42:31;;;;;;;3.60;2.23;;;22.60;75.70;;;;;;5075820;28;20455;-59
2023/09/20 09:45:01;;;;;;;4.37;1.73;;;22.50;75.30;;;;;;5075917;28;20982;-60
2023/09/20 09:47:29;;;;;;;3.00;2.00;;;22.40;75.10;;;;;;5075781;28;20475;-61
2023/09/20 09:49:59;;;;;;;3.60;1.70;;;22.40;75.20;;;;;;5075352;28;20451;-61
2023/09/20 09:52:28;;;;;;;3.80;1.80;;;22.30;75.10;;;;;;5075177;28;20483;-62
2023/09/20 09:54:56;;;;;;;2.97;2.00;;;22.40;75.00;;;;;;5075940;28;20544;-61
2023/09/20 09:57:24;;;;;;;4.03;1.57;;;22.40;74.70;;;;;;5075509;28;20442;-61
2023/09/20 09:59:52;;;;;;;2.67;1.90;;;22.50;74.40;;;;;;5075843;28;20557;-61
2023/09/20 10:02:20;;;;;;;2.70;1.70;;;22.70;73.90;;;;;;5075147;28;20460;-61
2023/09/20 10:04:53;;;;;;;5.93;2.87;;;22.90;73.30;;;;;;5075432;28;20490;-61
2023/09/20 10:07:23;;;;;;;5.17;1.90;;;23.10;73.00;;;;;;5075490;28;20464;-61
2023/09/20 10:09:52;;;;;;;3.40;1.90;;;23.20;72.30;;;;;;5074996;28;20448;-61
2023/09/20 10:12:23;;;;;;;2.27;1.90;;;23.30;71.90;;;;;;5074987;28;20523;-62
2023/09/20 10:14:50;;;;;;;3.00;1.90;;;23.40;71.50;;;;;;5075269;28;20473;-61
2023/09/20 10:17:20;;;;;;;2.73;2.17;;;23.50;70.80;;;;;;5075241;28;20443;-62
2023/09/20 10:19:50;;;;;;;4.10;2.90;;;23.50;70.30;;;;;;5075841;28;21051;-61
2023/09/20 10:22:21;;;;;;;2.37;1.80;;;23.40;69.90;;;;;;5078103;28;20475;-61
2023/09/20 10:24:53;;;;;;;2.70;1.90;;;23.40;69.80;;;;;;5078433;28;20428;-61
2023/09/20 10:27:22;;;;;;;4.43;1.70;;;23.30;69.60;;;;;;5077938;28;20515;-62
2023/09/20 10:30:02;;;;;;;2.60;1.90;;;23.40;69.50;;;;;;5078448;28;20440;-61
2023/09/20 10:32:35;;;;;;;4.10;1.73;;;23.50;69.10;;;;;;5080481;28;20537;-61
2023/09/20 10:35:29;;;;;;;1.70;1.57;;;23.50;68.70;;;;;;5079147;28;20439;-62
2023/09/20 10:38:26;;;;;;;3.80;2.37;;;23.60;68.40;;;;;;5074424;28;20431;-62
2023/09/20 10:41:00;;;;;;;2.73;1.83;;;23.60;68.20;;;;;;5074173;28;20420;-61
2023/09/20 10:43:44;;;;;;;3.00;1.60;;;23.70;68.00;;;;;;5074799;28;20424;-62
2023/09/20 10:46:13;;;;;;;3.10;1.63;;;23.80;67.50;;;;;;5075474;28;20787;-62
2023/09/20 10:48:48;;;;;;;2.80;1.53;;;23.80;67.20;;;;;;5074990;28;20448;-62
2023/09/20 10:51:48;;;;;;;4.67;2.30;;;23.70;67.00;;;;;;5075829;28;20538;-63
2023/09/20 10:54:36;;;;;;;3.07;1.80;;;23.60;67.10;;;;;;5074207;28;20416;-62
2023/09/20 10:57:06;;;;;;;4.57;1.70;;;23.70;67.40;;;;;;5074265;28;20462;-62
2023/09/20 10:59:36;;;;;;;3.43;1.77;;;23.70;67.20;;;;;;5074604;28;20443;-61
2023/09/20 11:02:09;;;;;;;3.30;1.87;;;23.80;67.20;;;;;;5074167;28;20559;-61
2023/09/20 11:04:38;;;;;;;2.00;1.67;;;23.70;67.00;;;;;;5074810;28;20818;-62
2023/09/20 11:07:06;;;;;;;2.60;1.60;;;23.60;67.00;;;;;;5074193;28;20439;-61
2023/09/20 11:09:34;;;;;;;3.23;1.73;;;23.50;66.80;;;;;;5073431;28;20446;-63
2023/09/20 11:12:06;;;;;;;2.57;1.50;;;23.50;67.00;;;;;;5073332;28;20463;-62
2023/09/20 11:14:36;;;;;;;3.27;1.73;;;23.50;66.80;;;;;;5074102;28;20428;-61
2023/09/20 11:17:05;;;;;;;1.90;1.60;;;23.50;66.90;;;;;;5077647;28;20428;-62
2023/09/20 11:19:33;;;;;;;3.60;1.17;;;23.50;66.70;;;;;;5073263;28;20443;-63
2023/09/20 11:22:00;;;;;;;4.43;1.83;;;23.50;66.70;;;;;;5073280;28;21030;-62
2023/09/20 11:24:27;;;;;;;3.63;1.70;;;23.50;66.70;;;;;;5073472;28;20447;-60
2023/09/20 11:26:55;;;;;;;1.80;1.50;;;23.50;66.90;;;;;;5073547;28;20439;-62
2023/09/20 11:29:23;;;;;;;2.00;1.73;;;23.60;67.10;;;;;;5073778;28;20443;-63
2023/09/20 11:31:57;;;;;;;2.70;1.47;;;23.80;67.00;;;;;;5075295;28;20456;-62
2023/09/20 11:34:25;;;;;;;2.63;1.43;;;23.90;66.90;;;;;;5074506;28;20424;-62
2023/09/20 11:36:53;;;;;;;2.30;1.63;;;24.10;66.60;;;;;;5073606;28;20452;-62
2023/09/20 11:39:27;;;;;;;2.43;1.90;;;24.30;66.30;;;;;;5073125;28;20998;-61
2023/09/20 11:41:59;;;;;;;2.87;1.37;;;24.50;66.10;;;;;;5073378;28;20973;-60
2023/09/20 11:44:26;;;;;;;4.07;1.40;;;24.60;65.80;;;;;;5073745;28;20427;-61
2023/09/20 11:46:55;;;;;;;4.00;1.63;;;24.70;65.70;;;;;;5073257;28;20435;-61
2023/09/20 11:49:22;;;;;;;3.50;1.40;;;24.60;65.60;;;;;;5073336;28;20820;-60
2023/09/20 11:51:51;;;;;;;2.57;1.60;;;24.50;65.80;;;;;;5073042;28;20470;-61
2023/09/20 11:54:18;;;;;;;6.53;1.30;;;24.40;66.20;;;;;;5072990;28;20524;-61
2023/09/20 11:56:48;;;;;;;2.83;1.63;;;24.50;66.40;;;;;;5073410;28;20444;-61
2023/09/20 11:59:18;;;;;;;3.63;1.83;;;24.70;66.20;;;;;;5072990;28;20428;-61
2023/09/20 12:01:46;;;;;;;2.13;1.20;;;24.80;65.50;;;;;;5073193;28;20483;-61
2023/09/20 12:04:16;;;;;;;2.10;1.43;;;25.00;65.10;;;;;;5073095;28;20441;-61
2023/09/20 12:06:43;;;;;;;2.87;1.63;;;25.10;64.50;;;;;;5073366;28;20527;-63
2023/09/20 12:09:12;;;;;;;2.30;1.23;;;25.20;64.20;;;;;;5073036;28;20454;-62
2023/09/20 12:11:40;;;;;;;3.73;1.40;;;25.40;63.80;;;;;;5072763;28;20525;-62
2023/09/20 12:14:12;;;;;;;2.70;1.30;;;25.60;63.00;;;;;;5074307;28;20513;-62
2023/09/20 12:16:39;;;;;;;2.20;1.40;;;25.80;62.50;;;;;;5074062;28;20434;-61
2023/09/20 12:19:07;;;;;;;2.93;1.70;;;25.90;62.00;;;;;;5073508;28;20443;-64
2023/09/20 12:21:35;;;;;;;1.70;1.40;;;25.90;61.70;;;;;;5073154;28;20466;-62
2023/09/20 12:24:01;;;;;;;2.80;1.60;;;25.80;61.60;;;;;;5073011;28;20446;-61
2023/09/20 12:26:28;;;;;;;3.33;1.67;;;25.80;61.60;;;;;;5072904;28;20439;-61
2023/09/20 12:28:55;;;;;;;2.40;1.43;;;25.70;61.50;;;;;;5072682;28;20949;-61
2023/09/20 12:31:23;;;;;;;1.83;1.20;;;25.70;61.40;;;;;;5072943;28;20459;-61
2023/09/20 12:33:50;;;;;;;2.13;1.47;;;25.60;61.20;;;;;;5076731;28;20848;-63
2023/09/20 12:36:17;;;;;;;1.90;1.50;;;25.50;61.40;;;;;;5077043;28;20447;-62
2023/09/20 12:38:45;;;;;;;3.33;1.70;;;25.40;61.70;;;;;;5076847;28;20443;-61
2023/09/20 12:41:12;;;;;;;3.10;1.93;;;25.30;61.80;;;;;;5077533;28;20466;-62
2023/09/20 12:43:39;;;;;;;1.93;1.33;;;25.10;62.10;;;;;;5078967;28;20439;-62
2023/09/20 12:46:07;;;;;;;2.60;1.87;;;25.10;62.40;;;;;;5077676;28;20450;-62
2023/09/20 12:48:36;;;;;;;4.47;1.80;;;25.10;62.50;;;;;;5076963;28;20497;-62
2023/09/20 12:51:04;;;;;;;1.77;1.33;;;25.20;62.70;;;;;;5076490;28;20538;-61
2023/09/20 12:53:32;;;;;;;1.77;1.20;;;25.30;62.40;;;;;;5075963;28;21103;-62
2023/09/20 12:56:00;;;;;;;2.37;1.13;;;25.20;61.80;;;;;;5076391;28;20455;-63
2023/09/20 12:58:27;;;;;;;1.60;1.10;;;25.10;61.30;;;;;;5077952;28;20443;-61
2023/09/20 13:00:54;;;;;;;4.23;1.20;;;25.00;59.80;;;;;;5078998;28;20435;-62
2023/09/20 13:03:21;;;;;;;4.40;1.37;;;24.90;59.30;;;;;;5080521;28;20439;-62
2023/09/20 13:05:49;;;;;;;2.40;1.33;;;24.90;58.80;;;;;;5080030;28;20444;-62
2023/09/20 13:08:16;;;;;;;2.83;1.80;;;24.90;58.50;;;;;;5079841;28;20479;-62
2023/09/20 13:10:43;;;;;;;2.17;1.20;;;24.90;58.10;;;;;;5082207;28;20462;-61
2023/09/20 13:13:11;;;;;;;1.87;1.20;;;24.90;57.80;;;;;;5081875;28;20487;-62
2023/09/20 13:15:41;;;;;;;2.33;1.10;;;24.90;57.70;;;;;;5076478;28;20440;-61
2023/09/20 13:18:10;;;;;;;1.70;1.10;;;24.90;57.80;;;;;;5076479;28;20450;-61
2023/09/20 13:20:37;;;;;;;2.50;1.20;;;25.00;57.90;;;;;;5076255;28;20538;-60
2023/09/20 13:23:04;;;;;;;3.07;1.07;;;25.10;57.80;;;;;;5076006;28;20462;-62
2023/09/20 13:25:32;;;;;;;1.90;1.00;;;25.20;57.80;;;;;;5076034;28;20439;-61
2023/09/20 13:27:59;;;;;;;2.97;1.63;;;25.30;57.80;;;;;;5075585;28;20447;-62
2023/09/20 13:30:28;;;;;;;4.20;1.30;;;25.20;57.90;;;;;;5075752;28;20440;-62
2023/09/20 13:32:55;;;;;;;3.30;1.30;;;25.00;58.40;;;;;;5075506;28;20968;-62